Time;durP1;ratioP1;P1;durP2;ratioP2;P2;SDS_P1;SDS_P2;PMS_P1;PMS_P2;Temp;Humidity;BMP_temperature;BMP_pressure;BME280_temperature;BME280_humidity;BME280_pressure;Samples;Min_cycle;Max_cycle;Signal;HPM_P1;HPM_P2
2022/03/03 00:01:40;;;;;;;;;;;;;;;20.72;37.03;101742.03;5075078;28;2243;-63
2022/03/03 00:04:07;;;;;;;;;;;;;;;20.72;36.85;101739.16;5074340;28;3111;-63
2022/03/03 00:06:33;;;;;;;;;;;;;;;20.73;36.92;101749.28;5076807;28;2270;-62
2022/03/03 00:09:00;;;;;;;;;;;;;;;20.74;37.12;101738.53;5076813;28;2047;-63
2022/03/03 00:11:26;;;;;;;;;;;;;;;20.75;37.16;101737.88;5081389;28;2234;-62
2022/03/03 00:13:52;;;;;;;;;;;;;;;20.74;37.14;101729.88;5079999;28;2429;-63
2022/03/03 00:16:19;;;;;;;;;;;;;;;20.73;37.10;101729.16;5077006;28;2176;-62
2022/03/03 00:18:45;;;;;;;;;;;;;;;20.71;37.02;101729.03;5081432;28;2048;-63
2022/03/03 00:21:11;;;;;;;;;;;;;;;20.68;36.98;101727.38;5079617;28;1585;-62
2022/03/03 00:23:38;;;;;;;;;;;;;;;20.70;37.11;101730.38;5086920;28;2036;-62
2022/03/03 00:26:04;;;;;;;;;;;;;;;20.70;37.06;101725.38;5079480;28;2160;-62
2022/03/03 00:28:30;;;;;;;;;;;;;;;20.72;37.10;101727.63;5080927;28;1968;-62
2022/03/03 00:30:57;;;;;;;;;;;;;;;20.73;37.13;101728.38;5079107;28;2338;-62
2022/03/03 00:33:23;;;;;;;;;;;;;;;20.75;37.26;101735.00;5083020;28;2081;-62
2022/03/03 00:35:50;;;;;;;;;;;;;;;20.75;37.25;101717.72;5077375;28;2036;-63
2022/03/03 00:38:16;;;;;;;;;;;;;;;20.76;37.28;101725.00;5079996;28;1906;-62
2022/03/03 00:40:43;;;;;;;;;;;;;;;20.76;37.43;101722.13;5074212;28;2213;-63
2022/03/03 00:43:09;;;;;;;;;;;;;;;20.77;37.47;101717.84;5076637;28;2139;-63
2022/03/03 00:45:35;;;;;;;;;;;;;;;20.76;37.37;101709.84;5077009;28;2452;-63
2022/03/03 00:48:02;;;;;;;;;;;;;;;20.75;37.39;101714.84;5079409;28;2317;-63
2022/03/03 00:50:28;;;;;;;;;;;;;;;20.74;37.32;101701.84;5078855;28;2319;-62
2022/03/03 00:52:55;;;;;;;;;;;;;;;20.73;37.32;101706.13;5079010;28;2112;-63
2022/03/03 00:55:21;;;;;;;;;;;;;;;20.74;37.38;101707.59;5081532;28;2240;-63
2022/03/03 00:57:48;;;;;;;;;;;;;;;20.74;37.34;101713.34;5080512;28;2247;-62
2022/03/03 01:00:14;;;;;;;;;;;;;;;20.74;37.28;101718.38;5074697;28;2198;-63
2022/03/03 01:02:41;;;;;;;;;;;;;;;20.77;37.32;101719.97;5077509;28;2232;-63
2022/03/03 01:05:08;;;;;;;;;;;;;;;20.74;37.42;101722.00;5080696;28;2115;-62
2022/03/03 01:07:34;;;;;;;;;;;;;;;20.75;37.35;101720.59;5080672;28;2151;-63
2022/03/03 01:10:00;;;;;;;;;;;;;;;20.74;37.39;101719.13;5072756;28;1584;-62
2022/03/03 01:12:27;;;;;;;;;;;;;;;20.73;37.26;101719.75;5083641;28;1967;-62
2022/03/03 01:14:53;;;;;;;;;;;;;;;20.73;37.34;101722.63;5077597;28;1920;-63
2022/03/03 01:17:19;;;;;;;;;;;;;;;20.68;37.26;101715.88;5079061;28;2231;-63
2022/03/03 01:19:46;;;;;;;;;;;;;;;20.70;37.44;101713.84;5077997;28;1978;-63
2022/03/03 01:22:12;;;;;;;;;;;;;;;20.72;37.24;101707.47;5077620;28;2005;-62
2022/03/03 01:24:38;;;;;;;;;;;;;;;20.73;37.33;101699.59;5074670;28;1902;-63
2022/03/03 01:27:05;;;;;;;;;;;;;;;20.75;37.48;101703.34;5081923;28;2271;-62
2022/03/03 01:29:31;;;;;;;;;;;;;;;20.76;37.48;101698.34;5076559;28;2057;-63
2022/03/03 01:31:57;;;;;;;;;;;;;;;20.76;37.57;101698.34;5081799;28;2342;-62
2022/03/03 01:34:24;;;;;;;;;;;;;;;20.74;37.55;101693.22;5082448;28;1920;-62
2022/03/03 01:36:50;;;;;;;;;;;;;;;20.75;37.56;101703.34;5079616;28;2160;-62
2022/03/03 01:39:18;;;;;;;;;;;;;;;20.74;37.48;101696.09;5080603;28;2056;-62
2022/03/03 01:41:44;;;;;;;;;;;;;;;20.73;37.62;101694.59;5082857;28;2016;-62
2022/03/03 01:44:10;;;;;;;;;;;;;;;20.72;37.50;101701.72;5076584;28;2381;-63
2022/03/03 01:46:46;;;;;;;;;;;;;;;20.72;37.58;101698.84;5082248;28;2346;-62
2022/03/03 01:49:13;;;;;;;;;;;;;;;20.72;37.61;101695.97;5078024;28;2232;-62
2022/03/03 01:51:39;;;;;;;;;;;;;;;20.73;37.50;101688.84;5080978;28;1987;-62
2022/03/03 01:54:06;;;;;;;;;;;;;;;20.73;37.49;101685.97;5082459;28;2223;-62
2022/03/03 01:56:32;;;;;;;;;;;;;;;20.75;37.49;101696.84;5083898;28;2168;-62
2022/03/03 01:58:58;;;;;;;;;;;;;;;20.73;37.39;101685.19;5078211;28;2151;-62
2022/03/03 02:01:25;;;;;;;;;;;;;;;20.73;37.56;101685.97;5085913;28;2631;-62
2022/03/03 02:03:51;;;;;;;;;;;;;;;20.72;37.41;101693.09;5078346;28;2082;-63
2022/03/03 02:06:17;;;;;;;;;;;;;;;20.72;37.51;101687.34;5063645;28;2245;-62
2022/03/03 02:08:44;;;;;;;;;;;;;;;20.69;37.41;101677.09;5076051;28;1911;-62
2022/03/03 02:11:10;;;;;;;;;;;;;;;20.70;37.47;101675.69;5079501;28;2235;-62
2022/03/03 02:13:36;;;;;;;;;;;;;;;20.71;37.48;101682.97;5067890;28;2481;-62
2022/03/03 02:16:03;;;;;;;;;;;;;;;20.72;37.62;101687.34;5084152;28;2200;-62
2022/03/03 02:18:29;;;;;;;;;;;;;;;20.73;37.69;101682.31;5076504;28;2077;-62
2022/03/03 02:20:56;;;;;;;;;;;;;;;20.75;37.61;101680.31;5081715;28;2358;-63
2022/03/03 02:23:22;;;;;;;;;;;;;;;20.75;37.80;101668.78;5076667;28;1652;-62
2022/03/03 02:25:48;;;;;;;;;;;;;;;20.75;37.65;101674.56;5075331;28;1939;-62
2022/03/03 02:28:15;;;;;;;;;;;;;;;20.74;37.67;101673.06;5075606;28;2013;-62
2022/03/03 02:30:41;;;;;;;;;;;;;;;20.74;37.67;101672.31;5075819;28;2252;-63
2022/03/03 02:33:07;;;;;;;;;;;;;;;20.71;37.56;101674.34;5079599;28;2251;-62
2022/03/03 02:35:34;;;;;;;;;;;;;;;20.71;37.54;101677.22;5080275;28;2011;-63
2022/03/03 02:38:00;;;;;;;;;;;;;;;20.72;37.64;101678.69;5082054;28;2695;-63
2022/03/03 02:40:27;;;;;;;;;;;;;;;20.70;37.63;101669.94;5075983;28;2069;-63
2022/03/03 02:42:53;;;;;;;;;;;;;;;20.71;37.64;101680.09;5076944;28;2183;-62
2022/03/03 02:45:20;;;;;;;;;;;;;;;20.71;37.63;101662.81;5081580;28;2456;-63
2022/03/03 02:47:47;;;;;;;;;;;;;;;20.71;37.61;101663.56;5081396;28;2382;-63
2022/03/03 02:50:14;;;;;;;;;;;;;;;20.72;37.75;101652.78;5082610;28;2325;-62
2022/03/03 02:52:40;;;;;;;;;;;;;;;20.71;37.62;101657.81;5075781;28;2305;-62
2022/03/03 02:55:07;;;;;;;;;;;;;;;20.70;37.68;101649.81;5080830;28;2277;-62
2022/03/03 03:00:18;;;;;;;;;;;;;;;20.67;37.75;101634.53;5075626;28;2245;-63
2022/03/03 03:02:44;;;;;;;;;;;;;;;20.68;37.53;101629.53;5078744;28;2636;-62
2022/03/03 03:05:11;;;;;;;;;;;;;;;20.67;37.65;101633.81;5079455;28;2100;-63
2022/03/03 03:07:37;;;;;;;;;;;;;;;20.68;37.51;101626.66;5082370;28;2018;-62
2022/03/03 03:10:04;;;;;;;;;;;;;;;20.71;37.55;101628.28;5075155;28;2008;-63
2022/03/03 03:12:30;;;;;;;;;;;;;;;20.71;37.64;101634.03;5077913;28;2243;-62
2022/03/03 03:14:57;;;;;;;;;;;;;;;20.73;37.67;101627.63;5080134;28;2024;-63
2022/03/03 03:17:24;;;;;;;;;;;;;;;20.74;37.68;101620.50;5080507;28;2231;-62
2022/03/03 03:19:50;;;;;;;;;;;;;;;20.74;37.77;101623.38;5079835;28;2196;-62
2022/03/03 03:22:16;;;;;;;;;;;;;;;20.72;37.71;101624.00;5074803;28;2153;-63
2022/03/03 03:24:43;;;;;;;;;;;;;;;20.72;37.60;101618.25;5080640;28;2002;-62
2022/03/03 03:27:09;;;;;;;;;;;;;;;20.71;37.75;101613.91;5078334;28;2021;-62
2022/03/03 03:29:35;;;;;;;;;;;;;;;20.71;37.73;101611.03;5081133;28;2099;-62
2022/03/03 03:32:02;;;;;;;;;;;;;;;20.70;37.72;101612.38;5078962;28;2337;-62
2022/03/03 03:34:28;;;;;;;;;;;;;;;20.69;37.76;101616.66;5084167;28;2174;-62
2022/03/03 03:36:55;;;;;;;;;;;;;;;20.67;37.76;101611.53;5076574;28;2055;-62
2022/03/03 03:39:21;;;;;;;;;;;;;;;20.65;37.77;101608.53;5076167;28;1744;-62
2022/03/03 03:41:47;;;;;;;;;;;;;;;20.65;37.70;101608.53;5074138;28;2117;-62
2022/03/03 03:44:14;;;;;;;;;;;;;;;20.65;37.61;101590.53;5079297;28;2074;-63
2022/03/03 03:46:40;;;;;;;;;;;;;;;20.65;37.70;101579.00;5082161;28;2279;-63
2022/03/03 03:49:06;;;;;;;;;;;;;;;20.66;37.69;101581.25;5077742;28;2025;-62
2022/03/03 03:51:33;;;;;;;;;;;;;;;20.68;37.73;101583.47;5075948;28;2140;-63
2022/03/03 03:54:00;;;;;;;;;;;;;;;20.69;37.72;101573.47;5077216;28;2330;-62
2022/03/03 03:56:26;;;;;;;;;;;;;;;20.70;37.73;101563.47;5075107;28;1919;-63
2022/03/03 03:58:52;;;;;;;;;;;;;;;20.72;37.65;101557.81;5076929;28;1869;-62
2022/03/03 04:01:19;;;;;;;;;;;;;;;20.73;37.71;101567.97;5079828;28;2275;-62
2022/03/03 04:03:46;;;;;;;;;;;;;;;20.74;37.80;101557.19;5082113;28;2239;-63
2022/03/03 04:06:12;;;;;;;;;;;;;;;20.75;37.78;101562.28;5077705;28;1977;-63
2022/03/03 04:08:38;;;;;;;;;;;;;;;20.76;37.83;101555.16;5072702;28;1922;-62
2022/03/03 04:11:04;;;;;;;;;;;;;;;20.76;37.74;101554.44;5078466;28;2480;-63
2022/03/03 04:13:31;;;;;;;;;;;;;;;20.75;37.83;101545.03;5082308;28;2283;-63
2022/03/03 04:15:57;;;;;;;;;;;;;;;20.73;37.82;101549.94;5077489;28;2285;-62
2022/03/03 04:18:24;;;;;;;;;;;;;;;20.72;37.81;101549.19;5072712;28;2145;-62
2022/03/03 04:20:50;;;;;;;;;;;;;;;20.71;37.85;101556.34;5080631;28;2378;-62
2022/03/03 04:23:17;;;;;;;;;;;;;;;20.72;37.83;101543.44;5076000;28;2259;-63
2022/03/03 04:25:43;;;;;;;;;;;;;;;20.67;37.75;101548.22;5078351;28;2271;-62
2022/03/03 04:28:10;;;;;;;;;;;;;;;20.67;37.75;101538.84;5072202;28;1771;-62
2022/03/03 04:30:36;;;;;;;;;;;;;;;20.65;37.57;101550.22;5081203;28;2100;-62
2022/03/03 04:33:02;;;;;;;;;;;;;;;20.64;37.76;101548.75;5078585;28;2343;-62
2022/03/03 04:35:29;;;;;;;;;;;;;;;20.65;37.89;101555.97;5081128;28;2176;-63
2022/03/03 04:37:55;;;;;;;;;;;;;;;20.65;37.61;101553.84;5076104;28;1991;-62
2022/03/03 04:40:21;;;;;;;;;;;;;;;20.64;37.65;101563.13;5071053;28;1743;-63
2022/03/03 04:42:49;;;;;;;;;;;;;;;20.65;37.61;101579.00;5079500;28;2131;-62
2022/03/03 04:45:16;;;;;;;;;;;;;;;20.67;37.72;101593.50;5079205;28;2044;-63
2022/03/03 04:47:42;;;;;;;;;;;;;;;20.67;37.56;101594.25;5076526;28;2214;-63
2022/03/03 04:50:09;;;;;;;;;;;;;;;20.68;37.78;101595.00;5081819;28;2072;-62
2022/03/03 04:52:35;;;;;;;;;;;;;;;20.70;37.71;101586.47;5081563;28;1900;-62
2022/03/03 04:55:04;;;;;;;;;;;;;;;20.71;37.83;101588.00;5080725;28;2321;-63
2022/03/03 04:57:31;;;;;;;;;;;;;;;20.73;37.87;101579.47;5081980;28;2355;-62
2022/03/03 04:59:57;;;;;;;;;;;;;;;20.74;37.73;101589.59;5081194;28;2228;-63
2022/03/03 05:02:24;;;;;;;;;;;;;;;20.71;37.72;101582.97;5081572;28;2236;-63
2022/03/03 05:04:51;;;;;;;;;;;;;;;20.73;37.81;101591.00;5078684;28;2171;-62
2022/03/03 05:07:19;;;;;;;;;;;;;;;20.72;37.83;101586.59;5077908;28;2211;-62
2022/03/03 05:09:45;;;;;;;;;;;;;;;20.72;37.87;101583.72;5075704;28;2101;-62
2022/03/03 05:12:11;;;;;;;;;;;;;;;20.70;37.84;101584.34;5080411;28;2108;-62
2022/03/03 05:14:38;;;;;;;;;;;;;;;20.66;37.87;101592.00;5082934;28;2071;-62
2022/03/03 05:17:04;;;;;;;;;;;;;;;20.67;37.84;101587.75;5084013;28;2223;-62
2022/03/03 05:19:31;;;;;;;;;;;;;;;20.65;37.77;101579.00;5081504;28;2124;-62
2022/03/03 05:21:58;;;;;;;;;;;;;;;20.64;37.70;101581.13;5077465;28;2048;-63
2022/03/03 05:24:24;;;;;;;;;;;;;;;20.64;37.85;101578.25;5076349;28;2298;-63
2022/03/03 05:26:50;;;;;;;;;;;;;;;20.64;37.77;101574.66;5083636;28;2189;-62
2022/03/03 05:29:17;;;;;;;;;;;;;;;20.63;37.73;101565.25;5075592;28;2009;-63
2022/03/03 05:31:43;;;;;;;;;;;;;;;20.64;37.67;101566.00;5076499;28;2211;-62
2022/03/03 05:34:09;;;;;;;;;;;;;;;20.62;37.75;101560.88;5078591;28;3120;-63
2022/03/03 05:36:36;;;;;;;;;;;;;;;20.63;37.74;101558.75;5077793;28;2366;-63
2022/03/03 05:39:03;;;;;;;;;;;;;;;20.66;37.59;101557.47;5068898;28;2345;-62
2022/03/03 05:41:29;;;;;;;;;;;;;;;20.66;37.79;101563.22;5082497;28;2647;-62
2022/03/03 05:43:55;;;;;;;;;;;;;;;20.69;37.69;101567.72;5083450;28;2293;-62
2022/03/03 05:46:22;;;;;;;;;;;;;;;20.68;37.67;101560.47;5080956;28;2092;-62
2022/03/03 05:48:49;;;;;;;;;;;;;;;20.70;37.84;101564.19;5061631;28;2386;-62
2022/03/03 05:51:15;;;;;;;;;;;;;;;20.71;38.26;101571.47;5078868;28;2369;-62
2022/03/03 05:53:41;;;;;;;;;;;;;;;20.73;38.07;101562.22;5079587;28;2536;-63
2022/03/03 05:56:11;;;;;;;;;;;;;;;20.72;37.95;101554.94;5081005;28;3299;-61
2022/03/03 05:58:45;;;;;;;;;;;;;;;20.79;38.22;101542.38;5081812;28;1610;-62
2022/03/03 06:01:12;;;;;;;;;;;;;;;20.78;38.36;101546.66;5077557;28;2247;-62
2022/03/03 06:03:38;;;;;;;;;;;;;;;20.85;38.08;101539.84;5076388;28;2254;-62
2022/03/03 06:06:18;;;;;;;;;;;;;;;20.81;38.34;101539.63;5083102;28;2177;-61
2022/03/03 06:09:03;;;;;;;;;;;;;;;20.78;38.43;101543.78;5084063;28;2131;-61
2022/03/03 06:11:29;;;;;;;;;;;;;;;20.77;38.72;101542.25;5078475;28;2104;-62
2022/03/03 06:14:05;;;;;;;;;;;;;;;20.86;38.62;101540.59;5080893;28;2051;-61
2022/03/03 06:16:32;;;;;;;;;;;;;;;20.86;38.65;101552.84;5075623;28;2631;-61
2022/03/03 06:18:58;;;;;;;;;;;;;;;20.87;38.85;101548.59;5080044;28;3089;-62
2022/03/03 06:21:25;;;;;;;;;;;;;;;20.87;39.06;101560.13;5082876;28;2135;-62
2022/03/03 06:23:51;;;;;;;;;;;;;;;20.89;39.65;101568.88;5078688;28;2235;-62
2022/03/03 06:26:18;;;;;;;;;;;;;;;20.84;39.58;101575.03;5074924;28;2989;-62
2022/03/03 06:28:44;;;;;;;;;;;;;;;20.84;39.70;101584.41;5079088;28;2278;-62
2022/03/03 06:31:11;;;;;;;;;;;;;;;20.82;40.19;101578.56;5075988;28;2330;-61
2022/03/03 06:33:37;;;;;;;;;;;;;;;20.50;39.01;101581.06;5081473;28;2362;-62
2022/03/03 06:36:04;;;;;;;;;;;;;;;20.62;39.49;101586.03;5078835;28;2278;-61
2022/03/03 06:38:31;;;;;;;;;;;;;;;20.69;39.54;101590.75;5082914;28;2312;-62
2022/03/03 06:41:05;;;;;;;;;;;;;;;20.86;39.16;101589.53;5078181;28;2204;-66
2022/03/03 06:43:31;;;;;;;;;;;;;;;20.97;39.63;101602.38;5076702;28;2188;-61
2022/03/03 06:45:58;;;;;;;;;;;;;;;20.91;39.80;101600.66;5067324;28;4011;-64
2022/03/03 06:48:24;;;;;;;;;;;;;;;20.93;39.99;101592.09;5046035;28;5101;-62
2022/03/03 06:50:51;;;;;;;;;;;;;;;20.92;40.28;101596.38;5054633;28;4211;-64
2022/03/03 06:53:28;;;;;;;;;;;;;;;20.90;39.95;101602.00;5052861;28;4647;-63
2022/03/03 06:55:56;;;;;;;;;;;;;;;20.91;39.97;101602.75;5054862;28;4493;-62
2022/03/03 06:58:23;;;;;;;;;;;;;;;20.90;40.08;101604.91;5056531;28;4552;-61
2022/03/03 07:00:50;;;;;;;;;;;;;;;20.90;39.70;101599.13;5057181;28;4057;-61
2022/03/03 07:03:19;;;;;;;;;;;;;;;20.93;39.84;101609.38;5052270;28;5184;-62
2022/03/03 07:05:45;;;;;;;;;;;;;;;20.92;39.93;101616.53;5056579;28;5815;-62
2022/03/03 07:08:11;;;;;;;;;;;;;;;20.90;39.99;101612.78;5058027;28;4392;-63
2022/03/03 07:10:38;;;;;;;;;;;;;;;20.88;40.03;101612.69;5053930;28;4377;-62
2022/03/03 07:13:04;;;;;;;;;;;;;;;20.87;40.14;101614.81;5059850;28;4362;-62
2022/03/03 07:15:30;;;;;;;;;;;;;;;20.86;40.05;101621.94;5055131;28;4215;-62
2022/03/03 07:18:06;;;;;;;;;;;;;;;20.85;39.97;101614.69;5069317;28;4456;-63
2022/03/03 07:20:51;;;;;;;;;;;;;;;20.85;39.92;101619.72;5056142;28;4004;-62
2022/03/03 07:23:19;;;;;;;;;;;;;;;20.84;39.92;101618.94;5053762;28;4905;-62
2022/03/03 07:25:48;;;;;;;;;;;;;;;20.97;39.43;101626.13;5052745;28;4520;-69
2022/03/03 07:28:14;;;;;;;;;;;;;;;21.03;39.40;101629.38;5054385;28;4543;-63
2022/03/03 07:30:41;;;;;;;;;;;;;;;21.07;39.39;101628.84;5069509;28;4355;-62
2022/03/03 07:33:17;;;;;;;;;;;;;;;21.01;39.30;101622.75;5054109;28;4574;-62
2022/03/03 07:35:44;;;;;;;;;;;;;;;21.04;39.35;101638.75;5055864;28;4618;-62
2022/03/03 07:38:14;;;;;;;;;;;;;;;21.03;39.30;101635.13;5070431;28;4572;-64
2022/03/03 07:40:43;;;;;;;;;;;;;;;21.04;39.25;101635.88;5072003;28;3994;-63
2022/03/03 07:43:10;;;;;;;;;;;;;;;21.06;39.28;101639.59;5071913;28;4912;-63
2022/03/03 07:45:36;;;;;;;;;;;;;;;21.06;39.20;101636.72;5075421;28;5248;-63
2022/03/03 07:48:03;;;;;;;;;;;;;;;21.09;39.00;101637.59;5075494;28;4009;-61
2022/03/03 07:50:29;;;;;;;;;;;;;;;21.01;39.09;101637.88;5075207;28;4613;-63
2022/03/03 07:52:55;;;;;;;;;;;;;;;21.04;39.09;101641.63;5074519;28;5283;-62
2022/03/03 07:55:22;;;;;;;;;;;;;;;20.98;39.01;101638.41;5068995;28;5305;-62
2022/03/03 07:57:58;;;;;;;;;;;;;;;20.95;38.79;101645.44;5065014;28;4105;-62
2022/03/03 08:00:26;;;;;;;;;;;;;;;20.91;38.64;101635.19;5065488;28;4100;-60
2022/03/03 08:02:53;;;;;;;;;;;;;;;20.90;38.72;101639.44;5017737;28;5308;-62
2022/03/03 08:05:19;;;;;;;;;;;;;;;20.87;38.56;101634.97;5034222;28;4024;-61
2022/03/03 08:07:46;;;;;;;;;;;;;;;20.88;38.71;101638.59;5058536;28;4580;-64
2022/03/03 08:10:13;;;;;;;;;;;;;;;20.82;38.72;101644.00;5075691;28;4542;-61
2022/03/03 08:12:40;;;;;;;;;;;;;;;20.67;38.68;101659.72;5077253;28;4265;-61
2022/03/03 08:15:06;;;;;;;;;;;;;;;20.50;38.22;101655.09;5075945;28;4391;-62
2022/03/03 08:17:34;;;;;;;;;;;;;;;20.45;37.80;101654.09;5075592;28;4075;-60
2022/03/03 08:20:01;;;;;;;;;;;;;;;20.45;36.78;101659.84;5071876;28;4206;-60
2022/03/03 08:22:27;;;;;;;;;;;;;;;20.59;37.52;101673.63;5074019;28;4219;-59
2022/03/03 08:24:54;;;;;;;;;;;;;;;20.57;36.92;101676.38;5077243;28;4185;-63
2022/03/03 08:27:21;;;;;;;;;;;;;;;20.76;37.44;101669.56;5074757;28;4067;-63
2022/03/03 08:29:47;;;;;;;;;;;;;;;20.80;36.88;101673.44;5080089;28;5744;-61
2022/03/03 08:32:16;;;;;;;;;;;;;;;20.88;37.28;101676.75;5082532;28;4153;-63
2022/03/03 08:34:53;;;;;;;;;;;;;;;20.95;37.16;101674.22;5082892;28;4455;-65
2022/03/03 08:37:49;;;;;;;;;;;;;;;21.00;36.99;101664.44;5084363;28;4111;-63
2022/03/03 08:40:18;;;;;;;;;;;;;;;21.00;37.13;101664.44;5063648;28;5547;-61
2022/03/03 08:42:45;;;;;;;;;;;;;;;20.97;37.50;101671.47;5079683;28;4212;-63
2022/03/03 08:45:12;;;;;;;;;;;;;;;21.04;37.37;101673.31;5078597;28;5224;-62
2022/03/03 08:47:39;;;;;;;;;;;;;;;21.02;37.46;101667.44;5077349;28;3995;-59
2022/03/03 08:50:08;;;;;;;;;;;;;;;21.01;37.41;101668.81;5078473;28;4062;-61
2022/03/03 08:52:52;;;;;;;;;;;;;;;21.01;37.34;101677.47;5079400;28;4030;-61
2022/03/03 08:55:18;;;;;;;;;;;;;;;21.05;37.47;101669.03;5074928;28;4355;-60
2022/03/03 08:57:45;;;;;;;;;;;;;;;21.11;37.26;101657.88;5079537;28;4043;-62
2022/03/03 09:00:11;;;;;;;;;;;;;;;21.12;37.21;101665.13;5076882;28;4551;-62
2022/03/03 09:02:40;;;;;;;;;;;;;;;21.13;37.32;101660.84;5079113;28;4054;-61
2022/03/03 09:05:07;;;;;;;;;;;;;;;21.11;37.36;101657.88;5078299;28;4304;-61
2022/03/03 09:07:33;;;;;;;;;;;;;;;21.00;37.65;101670.19;5076351;28;4116;-60
2022/03/03 09:10:00;;;;;;;;;;;;;;;21.01;37.03;101671.69;5075928;28;4120;-61
2022/03/03 09:12:26;;;;;;;;;;;;;;;21.07;37.20;101674.91;5077223;28;4211;-60
2022/03/03 09:14:53;;;;;;;;;;;;;;;21.12;37.19;101665.13;5078657;28;4134;-61
2022/03/03 09:17:19;;;;;;;;;;;;;;;21.13;37.27;101672.38;5079059;28;4209;-60
2022/03/03 09:19:47;;;;;;;;;;;;;;;21.20;37.64;101674.22;5081223;28;4102;-60
2022/03/03 09:22:13;;;;;;;;;;;;;;;21.19;37.52;101674.84;5079000;28;4518;-60
2022/03/03 09:24:40;;;;;;;;;;;;;;;21.27;37.85;101669.53;5078877;28;4047;-59
2022/03/03 09:27:06;;;;;;;;;;;;;;;21.22;37.46;101664.94;5079157;28;4223;-60
2022/03/03 09:29:36;;;;;;;;;;;;;;;21.22;37.60;101680.09;5077144;28;4125;-59
2022/03/03 09:32:02;;;;;;;;;;;;;;;21.20;37.96;101677.09;5079035;28;5647;-59
2022/03/03 09:34:29;;;;;;;;;;;;;;;21.16;37.78;101687.63;5074590;28;4096;-60
2022/03/03 09:36:55;;;;;;;;;;;;;;;21.07;37.86;101683.53;5071882;28;4121;-59
2022/03/03 09:39:22;;;;;;;;;;;;;;;21.12;37.46;101683.16;5077525;28;4199;-60
2022/03/03 09:41:48;;;;;;;;;;;;;;;21.15;37.56;101678.25;5076785;28;5346;-59
2022/03/03 09:44:15;;;;;;;;;;;;;;;21.17;37.39;101681.25;5076953;28;4171;-60
2022/03/03 09:46:41;;;;;;;;;;;;;;;21.15;37.55;101686.16;5074177;28;4250;-65
2022/03/03 09:49:08;;;;;;;;;;;;;;;21.26;37.20;101686.09;5078998;28;4184;-65
2022/03/03 09:51:34;;;;;;;;;;;;;;;21.39;37.17;101683.88;5078091;28;5267;-66
2022/03/03 09:54:00;;;;;;;;;;;;;;;21.40;36.93;101694.03;5073623;28;3966;-65
2022/03/03 09:56:27;;;;;;;;;;;;;;;21.32;37.02;101691.44;5077964;28;4218;-67
2022/03/03 09:58:53;;;;;;;;;;;;;;;21.33;37.09;101690.81;5076568;28;5248;-69
2022/03/03 10:01:19;;;;;;;;;;;;;;;21.34;37.09;101689.41;5073444;28;5052;-68
2022/03/03 10:03:47;;;;;;;;;;;;;;;21.42;36.81;101691.28;5077900;28;5414;-67
2022/03/03 10:06:13;;;;;;;;;;;;;;;21.46;36.85;101692.25;5077416;28;4135;-67
2022/03/03 10:08:40;;;;;;;;;;;;;;;21.43;37.04;101695.66;5077307;28;4214;-67
2022/03/03 10:11:09;;;;;;;;;;;;;;;21.33;37.10;101698.69;5075247;28;4149;-66
2022/03/03 10:13:45;;;;;;;;;;;;;;;21.26;37.26;101691.84;5076886;28;4096;-67
2022/03/03 10:16:11;;;;;;;;;;;;;;;21.26;37.53;101694.72;5076932;28;4177;-66
2022/03/03 10:18:38;;;;;;;;;;;;;;;21.26;37.33;101691.84;5061651;28;4156;-75
2022/03/03 10:21:04;;;;;;;;;;;;;;;21.24;37.52;101694.59;5077440;28;4146;-66
2022/03/03 10:23:34;;;;;;;;;;;;;;;21.24;37.75;101688.84;5076156;28;4919;-65
2022/03/03 10:26:01;;;;;;;;;;;;;;;21.27;37.57;101686.81;5077534;28;4169;-66
2022/03/03 10:28:29;;;;;;;;;;;;;;;21.26;37.52;101686.09;5078359;28;5257;-66
2022/03/03 10:30:55;;;;;;;;;;;;;;;21.39;37.31;101692.50;5079191;28;4081;-67
2022/03/03 10:33:22;;;;;;;;;;;;;;;21.43;37.32;101687.00;5076714;28;4251;-65
2022/03/03 10:35:58;;;;;;;;;;;;;;;21.48;37.12;101700.25;5076192;28;4042;-68
2022/03/03 10:38:24;;;;;;;;;;;;;;;21.48;37.25;101706.00;5077400;28;4208;-67
2022/03/03 10:40:51;;;;;;;;;;;;;;;21.50;37.04;101704.00;5075573;28;4162;-67
2022/03/03 10:43:17;;;;;;;;;;;;;;;21.50;36.87;101703.25;5071901;28;4223;-71
2022/03/03 10:46:13;;;;;;;;;;;;;;;21.46;36.86;101695.13;5075483;28;4143;-65
2022/03/03 10:48:39;;;;;;;;;;;;;;;21.53;36.81;101701.97;5057244;28;4129;-65
2022/03/03 10:51:06;;;;;;;;;;;;;;;21.51;36.83;101711.25;5074071;28;4186;-69
2022/03/03 10:53:33;;;;;;;;;;;;;;;21.54;36.81;101703.47;5076991;28;6438;-71
2022/03/03 10:56:04;;;;;;;;;;;;;;;21.56;37.06;101711.50;5077821;28;4212;-68
2022/03/03 10:58:50;;;;;;;;;;;;;;;21.53;36.87;101713.50;5074829;28;4500;-68
2022/03/03 11:01:17;;;;;;;;;;;;;;;21.51;36.79;101699.00;5075723;28;4486;-70
2022/03/03 11:03:49;;;;;;;;;;;;;;;21.44;37.25;101703.66;5079009;28;4213;-68
2022/03/03 11:06:16;;;;;;;;;;;;;;;21.47;37.20;101705.28;5077561;28;6848;-69
2022/03/03 11:08:42;;;;;;;;;;;;;;;21.40;37.33;101699.78;5075902;28;4510;-71
2022/03/03 11:11:08;;;;;;;;;;;;;;;21.40;37.44;101694.78;5070406;28;4158;-72
2022/03/03 11:13:35;;;;;;;;;;;;;;;21.41;37.37;101695.53;5074776;28;4107;-71
2022/03/03 11:16:01;;;;;;;;;;;;;;;21.50;37.45;101698.22;5076115;28;4396;-68
2022/03/03 11:18:28;;;;;;;;;;;;;;;21.51;37.24;101693.22;5076793;28;4225;-68
2022/03/03 11:20:54;;;;;;;;;;;;;;;21.51;37.26;101687.47;5077541;28;5191;-69
2022/03/03 11:23:21;;;;;;;;;;;;;;;21.52;37.34;101677.41;5073770;28;4148;-68
2022/03/03 11:25:49;;;;;;;;;;;;;;;21.45;37.11;101690.75;5077349;28;5555;-69
2022/03/03 11:28:15;;;;;;;;;;;;;;;21.52;37.01;101694.72;5075731;28;4229;-65
2022/03/03 11:30:45;;;;;;;;;;;;;;;21.49;37.09;101684.47;5075709;28;4177;-72
2022/03/03 11:33:18;;;;;;;;;;;;;;;21.50;37.24;101691.72;5072389;28;4366;-68
2022/03/03 11:35:44;;;;;;;;;;;;;;;21.54;37.17;101691.94;5077918;28;4313;-72
2022/03/03 11:38:11;;;;;;;;;;;;;;;21.49;36.89;101696.00;5078682;28;4423;-71
2022/03/03 11:40:37;;;;;;;;;;;;;;;21.47;36.97;101682.22;5074848;28;5278;-71
2022/03/03 11:43:12;;;;;;;;;;;;;;;21.50;37.05;101674.44;5055937;28;4337;-71
2022/03/03 11:45:42;;;;;;;;;;;;;;;21.52;37.11;101674.53;5077918;28;4121;-72
2022/03/03 11:48:10;;;;;;;;;;;;;;;21.53;36.89;101676.78;5065498;28;4043;-72
2022/03/03 11:50:36;;;;;;;;;;;;;;;21.54;36.64;101683.31;5079956;28;4520;-72
2022/03/03 11:53:02;;;;;;;;;;;;;;;21.58;37.05;101689.28;5075966;28;4083;-68
2022/03/03 11:55:38;;;;;;;;;;;;;;;21.58;36.89;101703.69;5076276;28;4165;-67
2022/03/03 11:58:04;;;;;;;;;;;;;;;21.47;37.05;101704.53;5073726;28;4538;-66
2022/03/03 12:00:31;;;;;;;;;;;;;;;21.45;37.28;101692.88;5077481;28;4205;-63
2022/03/03 12:02:59;;;;;;;;;;;;;;;21.42;37.38;101692.03;5076232;28;4150;-62
2022/03/03 12:05:28;;;;;;;;;;;;;;;21.39;37.40;101693.25;5069773;28;4202;-63
2022/03/03 12:07:57;;;;;;;;;;;;;;;21.36;37.33;101690.91;5072165;28;4445;-63
2022/03/03 12:10:23;;;;;;;;;;;;;;;21.37;37.32;101686.63;5075688;28;4083;-63
2022/03/03 12:12:50;;;;;;;;;;;;;;;21.31;37.45;101678.41;5073967;28;4513;-68
2022/03/03 12:15:16;;;;;;;;;;;;;;;21.28;37.37;101683.31;5073444;28;4198;-67
2022/03/03 12:17:54;;;;;;;;;;;;;;;21.32;37.31;101689.28;5074397;28;4530;-74
2022/03/03 12:20:23;;;;;;;;;;;;;;;21.30;37.34;101676.91;5075818;28;5432;-66
2022/03/03 12:23:19;;;;;;;;;;;;;;;21.25;37.31;101680.94;5074147;28;4149;-68
2022/03/03 12:25:50;;;;;;;;;;;;;;;21.23;37.36;101672.94;5039933;28;4090;-66
2022/03/03 12:28:35;;;;;;;;;;;;;;;21.23;37.53;101664.28;5071975;28;4352;-62
2022/03/03 12:31:02;;;;;;;;;;;;;;;21.21;37.83;101667.09;5075728;28;5302;-61
2022/03/03 12:33:29;;;;;;;;;;;;;;;21.20;37.80;101674.22;5054213;28;5210;-61
2022/03/03 12:36:02;;;;;;;;;;;;;;;21.17;37.89;101672.63;5077175;28;4125;-62
2022/03/03 12:38:28;;;;;;;;;;;;;;;21.21;37.48;101672.84;5075574;28;4538;-60
2022/03/03 12:40:55;;;;;;;;;;;;;;;21.22;37.49;101679.34;5077030;28;5250;-61
2022/03/03 12:43:21;;;;;;;;;;;;;;;21.33;37.62;101673.50;5071965;28;4182;-65
2022/03/03 12:45:48;;;;;;;;;;;;;;;21.44;37.40;101671.19;5057178;28;4470;-65
2022/03/03 12:48:25;;;;;;;;;;;;;;;21.43;37.52;101673.34;5074595;28;4261;-63
2022/03/03 12:50:52;;;;;;;;;;;;;;;21.60;37.84;101669.22;5074156;28;4134;-64
2022/03/03 12:53:18;;;;;;;;;;;;;;;21.67;38.17;101664.50;5053490;28;4493;-61